sensor_id;sensor_type;location;lat;lon;timestamp;temperature;humidity
10566;DHT22;5331;48.148;16.326;2022-07-26T00:00:35;24.30;1.00
10566;DHT22;5331;48.148;16.326;2022-07-26T00:03:02;24.30;1.00
10566;DHT22;5331;48.148;16.326;2022-07-26T00:05:29;24.30;1.00
10566;DHT22;5331;48.148;16.326;2022-07-26T00:07:56;24.30;1.00
10566;DHT22;5331;48.148;16.326;2022-07-26T00:10:36;24.30;1.00
10566;DHT22;5331;48.148;16.326;2022-07-26T00:13:04;24.30;1.00
10566;DHT22;5331;48.148;16.326;2022-07-26T00:15:31;24.30;1.00
10566;DHT22;5331;48.148;16.326;2022-07-26T00:17:58;24.20;1.00
10566;DHT22;5331;48.148;16.326;2022-07-26T00:20:25;24.20;1.00
10566;DHT22;5331;48.148;16.326;2022-07-26T00:22:52;24.20;1.00
10566;DHT22;5331;48.148;16.326;2022-07-26T00:25:19;24.10;1.00
10566;DHT22;5331;48.148;16.326;2022-07-26T00:27:46;24.20;1.00
10566;DHT22;5331;48.148;16.326;2022-07-26T00:30:15;24.20;1.00
10566;DHT22;5331;48.148;16.326;2022-07-26T00:32:42;24.30;1.00
10566;DHT22;5331;48.148;16.326;2022-07-26T00:35:09;24.30;1.00
10566;DHT22;5331;48.148;16.326;2022-07-26T00:37:36;24.30;1.00
10566;DHT22;5331;48.148;16.326;2022-07-26T00:40:04;24.30;1.00
10566;DHT22;5331;48.148;16.326;2022-07-26T00:42:31;24.20;1.00
10566;DHT22;5331;48.148;16.326;2022-07-26T00:44:59;24.20;1.00
10566;DHT22;5331;48.148;16.326;2022-07-26T00:47:27;24.20;1.00
10566;DHT22;5331;48.148;16.326;2022-07-26T00:49:54;24.20;1.00
10566;DHT22;5331;48.148;16.326;2022-07-26T00:52:21;24.20;1.00
10566;DHT22;5331;48.148;16.326;2022-07-26T00:54:48;24.20;1.00
10566;DHT22;5331;48.148;16.326;2022-07-26T00:57:15;24.30;1.00
10566;DHT22;5331;48.148;16.326;2022-07-26T00:59:42;24.30;1.00
10566;DHT22;5331;48.148;16.326;2022-07-26T01:02:09;25.00;1.00
10566;DHT22;5331;48.148;16.326;2022-07-26T01:04:38;25.00;1.00
10566;DHT22;5331;48.148;16.326;2022-07-26T01:07:05;25.40;1.00
10566;DHT22;5331;48.148;16.326;2022-07-26T01:09:32;25.70;1.00
10566;DHT22;5331;48.148;16.326;2022-07-26T01:11:59;26.00;1.00
10566;DHT22;5331;48.148;16.326;2022-07-26T01:14:26;26.10;1.00
10566;DHT22;5331;48.148;16.326;2022-07-26T01:16:53;26.20;1.00
10566;DHT22;5331;48.148;16.326;2022-07-26T01:19:21;26.10;1.00
10566;DHT22;5331;48.148;16.326;2022-07-26T01:21:50;26.10;1.00
10566;DHT22;5331;48.148;16.326;2022-07-26T01:24:17;26.00;1.00
10566;DHT22;5331;48.148;16.326;2022-07-26T01:26:44;25.80;1.00
10566;DHT22;5331;48.148;16.326;2022-07-26T01:29:11;25.60;1.00
10566;DHT22;5331;48.148;16.326;2022-07-26T01:31:38;25.50;1.00
10566;DHT22;5331;48.148;16.326;2022-07-26T01:34:05;25.20;1.00
10566;DHT22;5331;48.148;16.326;2022-07-26T01:36:32;24.90;1.00
10566;DHT22;5331;48.148;16.326;2022-07-26T01:39:00;24.70;1.00
10566;DHT22;5331;48.148;16.326;2022-07-26T01:41:27;24.50;1.00
10566;DHT22;5331;48.148;16.326;2022-07-26T01:43:54;24.40;1.00
10566;DHT22;5331;48.148;16.326;2022-07-26T01:46:21;24.30;1.00
10566;DHT22;5331;48.148;16.326;2022-07-26T01:48:48;24.20;1.00
10566;DHT22;5331;48.148;16.326;2022-07-26T01:51:15;24.10;1.00
10566;DHT22;5331;48.148;16.326;2022-07-26T01:53:42;24.10;1.00
10566;DHT22;5331;48.148;16.326;2022-07-26T01:56:12;24.10;1.00
10566;DHT22;5331;48.148;16.326;2022-07-26T01:58:39;24.10;1.00
10566;DHT22;5331;48.148;16.326;2022-07-26T02:01:06;24.00;1.00
10566;DHT22;5331;48.148;16.326;2022-07-26T02:03:34;23.90;1.00
10566;DHT22;5331;48.148;16.326;2022-07-26T02:08:28;23.90;1.00
10566;DHT22;5331;48.148;16.326;2022-07-26T02:10:55;24.00;1.00
10566;DHT22;5331;48.148;16.326;2022-07-26T02:13:31;24.00;1.00
10566;DHT22;5331;48.148;16.326;2022-07-26T02:15:59;23.90;1.00
10566;DHT22;5331;48.148;16.326;2022-07-26T02:18:26;23.70;1.00
10566;DHT22;5331;48.148;16.326;2022-07-26T02:20:54;23.60;1.00
10566;DHT22;5331;48.148;16.326;2022-07-26T02:23:21;23.40;1.00
10566;DHT22;5331;48.148;16.326;2022-07-26T02:25:49;23.20;1.00
10566;DHT22;5331;48.148;16.326;2022-07-26T02:28:16;22.90;1.00
10566;DHT22;5331;48.148;16.326;2022-07-26T02:30:45;22.60;1.00
10566;DHT22;5331;48.148;16.326;2022-07-26T02:33:12;22.50;1.00
10566;DHT22;5331;48.148;16.326;2022-07-26T02:35:39;22.30;1.00
10566;DHT22;5331;48.148;16.326;2022-07-26T02:38:09;22.10;1.00
10566;DHT22;5331;48.148;16.326;2022-07-26T02:40:37;22.00;1.00
10566;DHT22;5331;48.148;16.326;2022-07-26T02:43:05;21.90;1.00
10566;DHT22;5331;48.148;16.326;2022-07-26T02:45:33;21.90;1.00
10566;DHT22;5331;48.148;16.326;2022-07-26T02:48:01;21.80;1.00
10566;DHT22;5331;48.148;16.326;2022-07-26T02:50:29;21.70;1.00
10566;DHT22;5331;48.148;16.326;2022-07-26T02:52:56;21.70;1.00
10566;DHT22;5331;48.148;16.326;2022-07-26T02:55:24;21.80;1.00
10566;DHT22;5331;48.148;16.326;2022-07-26T02:57:51;21.80;1.00
10566;DHT22;5331;48.148;16.326;2022-07-26T03:00:20;21.70;1.00
10566;DHT22;5331;48.148;16.326;2022-07-26T03:02:47;21.70;1.00
10566;DHT22;5331;48.148;16.326;2022-07-26T03:05:17;21.60;1.00
10566;DHT22;5331;48.148;16.326;2022-07-26T03:07:44;21.50;1.00
10566;DHT22;5331;48.148;16.326;2022-07-26T03:10:11;21.40;1.00
10566;DHT22;5331;48.148;16.326;2022-07-26T03:12:39;21.50;1.00
10566;DHT22;5331;48.148;16.326;2022-07-26T03:15:06;21.40;1.00
10566;DHT22;5331;48.148;16.326;2022-07-26T03:17:33;21.40;1.00
10566;DHT22;5331;48.148;16.326;2022-07-26T03:20:00;21.40;1.00
10566;DHT22;5331;48.148;16.326;2022-07-26T03:22:30;21.40;1.00
10566;DHT22;5331;48.148;16.326;2022-07-26T03:24:57;21.40;1.00
10566;DHT22;5331;48.148;16.326;2022-07-26T03:27:24;21.50;1.00
10566;DHT22;5331;48.148;16.326;2022-07-26T03:29:51;21.40;1.00
10566;DHT22;5331;48.148;16.326;2022-07-26T03:32:18;21.50;1.00
10566;DHT22;5331;48.148;16.326;2022-07-26T03:34:45;21.50;1.00
10566;DHT22;5331;48.148;16.326;2022-07-26T03:37:12;21.50;1.00
10566;DHT22;5331;48.148;16.326;2022-07-26T03:39:40;21.50;1.00
10566;DHT22;5331;48.148;16.326;2022-07-26T03:42:07;21.40;1.00
10566;DHT22;5331;48.148;16.326;2022-07-26T03:44:34;21.40;1.00
10566;DHT22;5331;48.148;16.326;2022-07-26T03:47:01;21.50;1.00
10566;DHT22;5331;48.148;16.326;2022-07-26T03:49:28;21.50;1.00
10566;DHT22;5331;48.148;16.326;2022-07-26T03:51:55;21.40;1.00
10566;DHT22;5331;48.148;16.326;2022-07-26T03:54:22;21.30;1.00
10566;DHT22;5331;48.148;16.326;2022-07-26T03:56:50;21.30;1.00
10566;DHT22;5331;48.148;16.326;2022-07-26T03:59:16;21.40;1.00
10566;DHT22;5331;48.148;16.326;2022-07-26T04:01:44;21.40;1.00
10566;DHT22;5331;48.148;16.326;2022-07-26T04:04:12;21.40;1.00
10566;DHT22;5331;48.148;16.326;2022-07-26T04:06:39;21.40;1.00
10566;DHT22;5331;48.148;16.326;2022-07-26T04:09:06;21.40;1.00
10566;DHT22;5331;48.148;16.326;2022-07-26T04:11:34;21.30;1.00
10566;DHT22;5331;48.148;16.326;2022-07-26T04:14:03;21.30;1.00
10566;DHT22;5331;48.148;16.326;2022-07-26T04:16:30;21.30;1.00
10566;DHT22;5331;48.148;16.326;2022-07-26T04:18:57;21.30;1.00
10566;DHT22;5331;48.148;16.326;2022-07-26T04:21:24;21.30;1.00
10566;DHT22;5331;48.148;16.326;2022-07-26T04:23:51;21.30;1.00
10566;DHT22;5331;48.148;16.326;2022-07-26T04:26:19;21.30;1.00
10566;DHT22;5331;48.148;16.326;2022-07-26T04:28:46;21.40;1.00
10566;DHT22;5331;48.148;16.326;2022-07-26T04:31:14;21.40;1.00
10566;DHT22;5331;48.148;16.326;2022-07-26T04:36:09;21.30;1.00
10566;DHT22;5331;48.148;16.326;2022-07-26T04:38:36;21.40;1.00
10566;DHT22;5331;48.148;16.326;2022-07-26T04:41:03;21.40;1.00
10566;DHT22;5331;48.148;16.326;2022-07-26T04:43:30;21.40;1.00
10566;DHT22;5331;48.148;16.326;2022-07-26T04:45:57;21.40;1.00
10566;DHT22;5331;48.148;16.326;2022-07-26T04:48:26;21.40;1.00
10566;DHT22;5331;48.148;16.326;2022-07-26T04:50:53;21.40;1.00
10566;DHT22;5331;48.148;16.326;2022-07-26T04:53:20;21.40;1.00
10566;DHT22;5331;48.148;16.326;2022-07-26T04:55:47;21.40;1.00
10566;DHT22;5331;48.148;16.326;2022-07-26T04:58:14;21.40;1.00
10566;DHT22;5331;48.148;16.326;2022-07-26T05:03:08;21.40;1.00
10566;DHT22;5331;48.148;16.326;2022-07-26T05:05:36;21.40;1.00
10566;DHT22;5331;48.148;16.326;2022-07-26T05:08:03;21.20;1.00
10566;DHT22;5331;48.148;16.326;2022-07-26T05:10:33;21.20;1.00
10566;DHT22;5331;48.148;16.326;2022-07-26T05:13:00;21.20;1.00
10566;DHT22;5331;48.148;16.326;2022-07-26T05:15:28;21.30;1.00
10566;DHT22;5331;48.148;16.326;2022-07-26T05:17:59;21.30;1.00
10566;DHT22;5331;48.148;16.326;2022-07-26T05:20:26;21.20;1.00
10566;DHT22;5331;48.148;16.326;2022-07-26T05:22:54;21.30;1.00
10566;DHT22;5331;48.148;16.326;2022-07-26T05:25:22;21.20;1.00
10566;DHT22;5331;48.148;16.326;2022-07-26T05:27:48;21.10;1.00
10566;DHT22;5331;48.148;16.326;2022-07-26T05:30:15;21.10;1.00
10566;DHT22;5331;48.148;16.326;2022-07-26T05:32:42;21.10;1.00
10566;DHT22;5331;48.148;16.326;2022-07-26T05:35:09;21.00;1.00
10566;DHT22;5331;48.148;16.326;2022-07-26T05:37:37;21.00;1.00
10566;DHT22;5331;48.148;16.326;2022-07-26T05:40:06;21.00;1.00
10566;DHT22;5331;48.148;16.326;2022-07-26T05:42:33;20.90;1.00
10566;DHT22;5331;48.148;16.326;2022-07-26T05:45:00;20.90;1.00
10566;DHT22;5331;48.148;16.326;2022-07-26T05:47:27;20.90;1.00
10566;DHT22;5331;48.148;16.326;2022-07-26T05:49:54;20.90;1.00
10566;DHT22;5331;48.148;16.326;2022-07-26T05:52:21;20.90;1.00
10566;DHT22;5331;48.148;16.326;2022-07-26T05:54:48;20.90;1.00
10566;DHT22;5331;48.148;16.326;2022-07-26T05:57:16;20.90;1.00
10566;DHT22;5331;48.148;16.326;2022-07-26T05:59:43;20.90;1.00
10566;DHT22;5331;48.148;16.326;2022-07-26T06:02:10;20.80;1.00
10566;DHT22;5331;48.148;16.326;2022-07-26T06:04:37;20.80;1.00
10566;DHT22;5331;48.148;16.326;2022-07-26T06:07:04;20.80;1.00
10566;DHT22;5331;48.148;16.326;2022-07-26T06:09:31;20.70;1.00
10566;DHT22;5331;48.148;16.326;2022-07-26T06:11:58;20.70;1.00
10566;DHT22;5331;48.148;16.326;2022-07-26T06:14:26;20.70;1.00
10566;DHT22;5331;48.148;16.326;2022-07-26T06:16:53;20.60;1.00
10566;DHT22;5331;48.148;16.326;2022-07-26T06:19:21;20.60;1.00
10566;DHT22;5331;48.148;16.326;2022-07-26T06:21:48;20.60;1.00
10566;DHT22;5331;48.148;16.326;2022-07-26T06:24:14;20.50;1.00
10566;DHT22;5331;48.148;16.326;2022-07-26T06:26:41;20.50;1.00
10566;DHT22;5331;48.148;16.326;2022-07-26T06:29:09;20.50;1.00
10566;DHT22;5331;48.148;16.326;2022-07-26T06:31:37;20.50;1.00
10566;DHT22;5331;48.148;16.326;2022-07-26T06:34:04;20.50;1.00
10566;DHT22;5331;48.148;16.326;2022-07-26T06:36:31;20.60;1.00
10566;DHT22;5331;48.148;16.326;2022-07-26T06:38:58;20.60;1.00
10566;DHT22;5331;48.148;16.326;2022-07-26T06:41:25;20.60;1.00
10566;DHT22;5331;48.148;16.326;2022-07-26T06:43:52;20.70;1.00
10566;DHT22;5331;48.148;16.326;2022-07-26T06:46:20;20.70;1.00
10566;DHT22;5331;48.148;16.326;2022-07-26T06:48:49;20.80;1.00
10566;DHT22;5331;48.148;16.326;2022-07-26T06:51:16;20.80;1.00
10566;DHT22;5331;48.148;16.326;2022-07-26T06:53:43;20.80;1.00
10566;DHT22;5331;48.148;16.326;2022-07-26T06:56:10;20.80;1.00
10566;DHT22;5331;48.148;16.326;2022-07-26T06:58:39;20.80;1.00
10566;DHT22;5331;48.148;16.326;2022-07-26T07:01:06;20.80;1.00
10566;DHT22;5331;48.148;16.326;2022-07-26T07:03:33;20.80;1.00
10566;DHT22;5331;48.148;16.326;2022-07-26T07:06:02;20.80;1.00
10566;DHT22;5331;48.148;16.326;2022-07-26T07:08:29;20.80;1.00
10566;DHT22;5331;48.148;16.326;2022-07-26T07:10:55;20.90;1.00
10566;DHT22;5331;48.148;16.326;2022-07-26T07:13:22;21.00;1.00
10566;DHT22;5331;48.148;16.326;2022-07-26T07:15:49;21.00;1.00
10566;DHT22;5331;48.148;16.326;2022-07-26T07:18:16;21.10;1.00
10566;DHT22;5331;48.148;16.326;2022-07-26T07:20:43;21.10;1.00
10566;DHT22;5331;48.148;16.326;2022-07-26T07:23:12;21.20;1.00
10566;DHT22;5331;48.148;16.326;2022-07-26T07:25:39;21.30;1.00
10566;DHT22;5331;48.148;16.326;2022-07-26T07:28:05;21.40;1.00
10566;DHT22;5331;48.148;16.326;2022-07-26T07:30:32;21.60;1.00
10566;DHT22;5331;48.148;16.326;2022-07-26T07:32:59;21.60;1.00
10566;DHT22;5331;48.148;16.326;2022-07-26T07:35:26;21.70;1.00
10566;DHT22;5331;48.148;16.326;2022-07-26T07:37:53;21.70;1.00
10566;DHT22;5331;48.148;16.326;2022-07-26T07:40:22;21.80;1.00
10566;DHT22;5331;48.148;16.326;2022-07-26T07:42:49;21.80;1.00
10566;DHT22;5331;48.148;16.326;2022-07-26T07:45:16;21.90;1.00
10566;DHT22;5331;48.148;16.326;2022-07-26T07:47:43;21.80;1.00
10566;DHT22;5331;48.148;16.326;2022-07-26T07:50:10;21.80;1.00
10566;DHT22;5331;48.148;16.326;2022-07-26T07:52:37;21.70;1.00
10566;DHT22;5331;48.148;16.326;2022-07-26T07:55:05;21.70;1.00
10566;DHT22;5331;48.148;16.326;2022-07-26T07:57:34;21.60;1.00
10566;DHT22;5331;48.148;16.326;2022-07-26T08:00:02;21.50;1.00
10566;DHT22;5331;48.148;16.326;2022-07-26T08:02:29;21.50;1.00
10566;DHT22;5331;48.148;16.326;2022-07-26T08:04:56;21.40;1.00
10566;DHT22;5331;48.148;16.326;2022-07-26T08:07:22;21.40;1.00
10566;DHT22;5331;48.148;16.326;2022-07-26T08:09:49;21.30;1.00
10566;DHT22;5331;48.148;16.326;2022-07-26T08:12:16;21.30;1.00
10566;DHT22;5331;48.148;16.326;2022-07-26T08:14:44;21.30;1.00
10566;DHT22;5331;48.148;16.326;2022-07-26T08:17:11;21.40;1.00
10566;DHT22;5331;48.148;16.326;2022-07-26T08:19:38;21.40;1.00
10566;DHT22;5331;48.148;16.326;2022-07-26T08:22:05;21.40;1.00
10566;DHT22;5331;48.148;16.326;2022-07-26T08:24:33;21.50;1.00
10566;DHT22;5331;48.148;16.326;2022-07-26T08:27:00;21.50;1.00
10566;DHT22;5331;48.148;16.326;2022-07-26T08:29:27;21.50;1.00
10566;DHT22;5331;48.148;16.326;2022-07-26T08:31:55;21.50;1.00
10566;DHT22;5331;48.148;16.326;2022-07-26T08:34:22;21.60;1.00
10566;DHT22;5331;48.148;16.326;2022-07-26T08:36:49;21.60;1.00
10566;DHT22;5331;48.148;16.326;2022-07-26T08:39:16;21.60;1.00
10566;DHT22;5331;48.148;16.326;2022-07-26T08:41:43;21.70;1.00
10566;DHT22;5331;48.148;16.326;2022-07-26T08:44:10;21.70;1.00
10566;DHT22;5331;48.148;16.326;2022-07-26T08:46:39;21.70;1.00
10566;DHT22;5331;48.148;16.326;2022-07-26T08:49:09;21.70;1.00
10566;DHT22;5331;48.148;16.326;2022-07-26T08:51:38;21.60;1.00
10566;DHT22;5331;48.148;16.326;2022-07-26T08:54:08;21.70;1.00
10566;DHT22;5331;48.148;16.326;2022-07-26T08:56:41;21.70;1.00
10566;DHT22;5331;48.148;16.326;2022-07-26T08:59:12;21.70;1.00
10566;DHT22;5331;48.148;16.326;2022-07-26T09:01:50;21.70;1.00
10566;DHT22;5331;48.148;16.326;2022-07-26T09:04:20;21.70;1.00
10566;DHT22;5331;48.148;16.326;2022-07-26T09:07:00;21.70;1.00
10566;DHT22;5331;48.148;16.326;2022-07-26T09:09:28;21.70;1.00
10566;DHT22;5331;48.148;16.326;2022-07-26T09:11:56;21.70;1.00
10566;DHT22;5331;48.148;16.326;2022-07-26T09:14:34;21.70;1.00
10566;DHT22;5331;48.148;16.326;2022-07-26T09:17:02;21.80;1.00
10566;DHT22;5331;48.148;16.326;2022-07-26T09:19:32;21.70;1.00
10566;DHT22;5331;48.148;16.326;2022-07-26T09:22:06;21.80;1.00
10566;DHT22;5331;48.148;16.326;2022-07-26T09:24:35;21.80;1.00
10566;DHT22;5331;48.148;16.326;2022-07-26T09:27:04;21.90;1.00
10566;DHT22;5331;48.148;16.326;2022-07-26T09:29:42;22.00;1.00
10566;DHT22;5331;48.148;16.326;2022-07-26T09:32:11;22.10;1.00
10566;DHT22;5331;48.148;16.326;2022-07-26T09:34:43;22.10;1.00
10566;DHT22;5331;48.148;16.326;2022-07-26T09:37:10;22.20;1.00
10566;DHT22;5331;48.148;16.326;2022-07-26T09:39:53;22.30;1.00
10566;DHT22;5331;48.148;16.326;2022-07-26T09:42:21;22.30;1.00
10566;DHT22;5331;48.148;16.326;2022-07-26T09:44:49;22.40;1.00
10566;DHT22;5331;48.148;16.326;2022-07-26T09:47:17;22.50;1.00
10566;DHT22;5331;48.148;16.326;2022-07-26T09:49:45;22.50;1.00
10566;DHT22;5331;48.148;16.326;2022-07-26T09:52:14;22.60;1.00
10566;DHT22;5331;48.148;16.326;2022-07-26T09:54:41;22.60;1.00
10566;DHT22;5331;48.148;16.326;2022-07-26T09:57:10;22.60;1.00
10566;DHT22;5331;48.148;16.326;2022-07-26T09:59:37;22.60;1.00
10566;DHT22;5331;48.148;16.326;2022-07-26T10:02:04;22.70;1.00
10566;DHT22;5331;48.148;16.326;2022-07-26T10:04:31;22.80;1.00
10566;DHT22;5331;48.148;16.326;2022-07-26T10:07:00;22.80;1.00
10566;DHT22;5331;48.148;16.326;2022-07-26T10:09:30;22.90;1.00
10566;DHT22;5331;48.148;16.326;2022-07-26T10:12:00;22.90;1.00
10566;DHT22;5331;48.148;16.326;2022-07-26T10:14:36;23.00;1.00
10566;DHT22;5331;48.148;16.326;2022-07-26T10:20:45;23.20;1.00
10566;DHT22;5331;48.148;16.326;2022-07-26T10:23:36;23.30;1.00
10566;DHT22;5331;48.148;16.326;2022-07-26T10:26:05;23.40;1.00
10566;DHT22;5331;48.148;16.326;2022-07-26T10:28:33;23.50;1.00
10566;DHT22;5331;48.148;16.326;2022-07-26T10:31:28;23.50;1.00
10566;DHT22;5331;48.148;16.326;2022-07-26T10:33:57;23.60;1.00
10566;DHT22;5331;48.148;16.326;2022-07-26T10:36:27;23.70;1.00
10566;DHT22;5331;48.148;16.326;2022-07-26T10:39:04;23.80;1.00
10566;DHT22;5331;48.148;16.326;2022-07-26T10:41:34;23.90;1.00
10566;DHT22;5331;48.148;16.326;2022-07-26T10:44:14;23.90;1.00
10566;DHT22;5331;48.148;16.326;2022-07-26T10:47:10;24.10;1.00
10566;DHT22;5331;48.148;16.326;2022-07-26T10:49:42;24.20;1.00
10566;DHT22;5331;48.148;16.326;2022-07-26T10:52:14;24.30;1.00
10566;DHT22;5331;48.148;16.326;2022-07-26T10:55:06;24.30;1.00
10566;DHT22;5331;48.148;16.326;2022-07-26T10:57:35;24.40;1.00
10566;DHT22;5331;48.148;16.326;2022-07-26T11:00:14;24.50;1.00
10566;DHT22;5331;48.148;16.326;2022-07-26T11:02:42;24.60;1.00
10566;DHT22;5331;48.148;16.326;2022-07-26T11:05:11;24.70;1.00
10566;DHT22;5331;48.148;16.326;2022-07-26T11:08:05;24.80;1.00
10566;DHT22;5331;48.148;16.326;2022-07-26T11:10:37;24.90;1.00
10566;DHT22;5331;48.148;16.326;2022-07-26T11:13:11;25.00;1.00
10566;DHT22;5331;48.148;16.326;2022-07-26T11:15:40;25.20;1.00
10566;DHT22;5331;48.148;16.326;2022-07-26T11:18:16;25.40;1.00
10566;DHT22;5331;48.148;16.326;2022-07-26T11:20:45;25.50;1.00
10566;DHT22;5331;48.148;16.326;2022-07-26T11:23:30;25.80;1.00
10566;DHT22;5331;48.148;16.326;2022-07-26T11:26:10;26.00;1.00
10566;DHT22;5331;48.148;16.326;2022-07-26T11:28:58;26.20;1.00
10566;DHT22;5331;48.148;16.326;2022-07-26T11:31:32;26.50;1.00
10566;DHT22;5331;48.148;16.326;2022-07-26T11:33:59;26.60;1.00
10566;DHT22;5331;48.148;16.326;2022-07-26T11:36:37;26.70;1.00
10566;DHT22;5331;48.148;16.326;2022-07-26T11:39:06;26.70;1.00
10566;DHT22;5331;48.148;16.326;2022-07-26T11:41:35;26.70;1.00
10566;DHT22;5331;48.148;16.326;2022-07-26T11:44:03;26.70;1.00
10566;DHT22;5331;48.148;16.326;2022-07-26T11:46:33;26.70;1.00
10566;DHT22;5331;48.148;16.326;2022-07-26T11:49:00;26.60;1.00
10566;DHT22;5331;48.148;16.326;2022-07-26T11:51:27;26.80;1.00
10566;DHT22;5331;48.148;16.326;2022-07-26T11:53:54;26.90;1.00
10566;DHT22;5331;48.148;16.326;2022-07-26T11:56:26;26.90;1.00
10566;DHT22;5331;48.148;16.326;2022-07-26T11:58:57;26.80;1.00
10566;DHT22;5331;48.148;16.326;2022-07-26T12:01:25;26.80;1.00
10566;DHT22;5331;48.148;16.326;2022-07-26T12:03:53;26.90;1.00
10566;DHT22;5331;48.148;16.326;2022-07-26T12:06:22;27.00;1.00
10566;DHT22;5331;48.148;16.326;2022-07-26T12:08:51;27.20;1.00
10566;DHT22;5331;48.148;16.326;2022-07-26T12:11:20;27.30;1.00
10566;DHT22;5331;48.148;16.326;2022-07-26T12:13:52;27.40;1.00
10566;DHT22;5331;48.148;16.326;2022-07-26T12:16:40;27.60;1.00
10566;DHT22;5331;48.148;16.326;2022-07-26T12:19:09;28.10;1.00
10566;DHT22;5331;48.148;16.326;2022-07-26T12:21:38;28.40;1.00
10566;DHT22;5331;48.148;16.326;2022-07-26T12:24:05;28.70;1.00
10566;DHT22;5331;48.148;16.326;2022-07-26T12:26:33;28.70;1.00
10566;DHT22;5331;48.148;16.326;2022-07-26T12:29:00;28.70;1.00
10566;DHT22;5331;48.148;16.326;2022-07-26T12:31:42;28.80;1.00
10566;DHT22;5331;48.148;16.326;2022-07-26T12:34:09;28.90;1.00
10566;DHT22;5331;48.148;16.326;2022-07-26T12:36:36;28.80;1.00
10566;DHT22;5331;48.148;16.326;2022-07-26T12:39:03;28.70;1.00
10566;DHT22;5331;48.148;16.326;2022-07-26T12:41:33;28.70;1.00
10566;DHT22;5331;48.148;16.326;2022-07-26T12:44:00;28.70;1.00
10566;DHT22;5331;48.148;16.326;2022-07-26T12:46:30;28.60;1.00
10566;DHT22;5331;48.148;16.326;2022-07-26T12:48:58;28.20;1.00
10566;DHT22;5331;48.148;16.326;2022-07-26T12:51:25;26.80;1.00
10566;DHT22;5331;48.148;16.326;2022-07-26T12:53:52;26.50;1.00
10566;DHT22;5331;48.148;16.326;2022-07-26T12:56:19;26.00;1.00
10566;DHT22;5331;48.148;16.326;2022-07-26T12:58:46;25.50;1.00
10566;DHT22;5331;48.148;16.326;2022-07-26T13:01:13;24.90;1.00
10566;DHT22;5331;48.148;16.326;2022-07-26T13:03:40;24.10;1.00
10566;DHT22;5331;48.148;16.326;2022-07-26T13:06:08;24.00;1.00
10566;DHT22;5331;48.148;16.326;2022-07-26T13:08:35;23.70;1.00
10566;DHT22;5331;48.148;16.326;2022-07-26T13:11:02;23.60;1.00
10566;DHT22;5331;48.148;16.326;2022-07-26T13:13:29;23.40;1.00
10566;DHT22;5331;48.148;16.326;2022-07-26T13:15:55;23.10;1.00
10566;DHT22;5331;48.148;16.326;2022-07-26T13:18:22;22.90;1.00
10566;DHT22;5331;48.148;16.326;2022-07-26T13:20:49;22.60;1.00
10566;DHT22;5331;48.148;16.326;2022-07-26T13:23:18;22.50;1.00
10566;DHT22;5331;48.148;16.326;2022-07-26T13:25:44;22.40;1.00
10566;DHT22;5331;48.148;16.326;2022-07-26T13:28:11;22.30;1.00
10566;DHT22;5331;48.148;16.326;2022-07-26T13:30:40;21.90;1.00
10566;DHT22;5331;48.148;16.326;2022-07-26T13:33:08;21.70;1.00
10566;DHT22;5331;48.148;16.326;2022-07-26T13:35:35;21.70;1.00
10566;DHT22;5331;48.148;16.326;2022-07-26T13:38:03;21.90;1.00
10566;DHT22;5331;48.148;16.326;2022-07-26T13:40:32;21.80;1.00
10566;DHT22;5331;48.148;16.326;2022-07-26T13:42:59;22.00;1.00
10566;DHT22;5331;48.148;16.326;2022-07-26T13:45:26;22.10;1.00
10566;DHT22;5331;48.148;16.326;2022-07-26T13:47:53;22.20;1.00
10566;DHT22;5331;48.148;16.326;2022-07-26T13:50:20;22.30;1.00
10566;DHT22;5331;48.148;16.326;2022-07-26T13:52:47;22.30;1.00
10566;DHT22;5331;48.148;16.326;2022-07-26T13:55:13;22.30;1.00
10566;DHT22;5331;48.148;16.326;2022-07-26T13:57:42;22.30;1.00
10566;DHT22;5331;48.148;16.326;2022-07-26T14:00:10;22.30;1.00
10566;DHT22;5331;48.148;16.326;2022-07-26T14:02:37;22.20;1.00
10566;DHT22;5331;48.148;16.326;2022-07-26T14:05:04;22.20;1.00
10566;DHT22;5331;48.148;16.326;2022-07-26T14:07:31;22.10;1.00
10566;DHT22;5331;48.148;16.326;2022-07-26T14:09:58;22.10;1.00
10566;DHT22;5331;48.148;16.326;2022-07-26T14:12:25;22.10;1.00
10566;DHT22;5331;48.148;16.326;2022-07-26T14:14:53;22.10;1.00
10566;DHT22;5331;48.148;16.326;2022-07-26T14:17:20;22.20;1.00
10566;DHT22;5331;48.148;16.326;2022-07-26T14:19:47;22.10;1.00
10566;DHT22;5331;48.148;16.326;2022-07-26T14:22:15;22.10;1.00
10566;DHT22;5331;48.148;16.326;2022-07-26T14:24:42;22.10;1.00
10566;DHT22;5331;48.148;16.326;2022-07-26T14:27:09;22.10;1.00
10566;DHT22;5331;48.148;16.326;2022-07-26T14:29:36;22.10;1.00
10566;DHT22;5331;48.148;16.326;2022-07-26T14:32:04;22.10;1.00
10566;DHT22;5331;48.148;16.326;2022-07-26T14:34:31;22.10;1.00
10566;DHT22;5331;48.148;16.326;2022-07-26T14:36:58;22.10;1.00
10566;DHT22;5331;48.148;16.326;2022-07-26T14:39:25;22.00;1.00
10566;DHT22;5331;48.148;16.326;2022-07-26T14:41:52;22.00;1.00
10566;DHT22;5331;48.148;16.326;2022-07-26T14:44:19;22.00;1.00
10566;DHT22;5331;48.148;16.326;2022-07-26T14:46:46;21.90;1.00
10566;DHT22;5331;48.148;16.326;2022-07-26T14:49:14;21.90;1.00
10566;DHT22;5331;48.148;16.326;2022-07-26T14:51:41;21.80;1.00
10566;DHT22;5331;48.148;16.326;2022-07-26T14:54:08;21.80;1.00
10566;DHT22;5331;48.148;16.326;2022-07-26T14:56:35;21.80;1.00
10566;DHT22;5331;48.148;16.326;2022-07-26T14:59:02;21.70;1.00
10566;DHT22;5331;48.148;16.326;2022-07-26T15:01:29;21.70;1.00
10566;DHT22;5331;48.148;16.326;2022-07-26T15:03:56;21.80;1.00
10566;DHT22;5331;48.148;16.326;2022-07-26T15:06:25;21.80;1.00
10566;DHT22;5331;48.148;16.326;2022-07-26T15:08:52;21.90;1.00
10566;DHT22;5331;48.148;16.326;2022-07-26T15:11:19;22.00;1.00
10566;DHT22;5331;48.148;16.326;2022-07-26T15:13:46;22.00;1.00
10566;DHT22;5331;48.148;16.326;2022-07-26T15:16:13;21.90;1.00
10566;DHT22;5331;48.148;16.326;2022-07-26T15:18:39;21.80;1.00
10566;DHT22;5331;48.148;16.326;2022-07-26T15:21:06;21.70;1.00
10566;DHT22;5331;48.148;16.326;2022-07-26T15:23:35;21.60;1.00
10566;DHT22;5331;48.148;16.326;2022-07-26T15:26:03;21.40;1.00
10566;DHT22;5331;48.148;16.326;2022-07-26T15:28:30;21.30;1.00
10566;DHT22;5331;48.148;16.326;2022-07-26T15:30:57;21.30;1.00
10566;DHT22;5331;48.148;16.326;2022-07-26T15:33:24;21.30;1.00
10566;DHT22;5331;48.148;16.326;2022-07-26T15:35:51;21.20;1.00
10566;DHT22;5331;48.148;16.326;2022-07-26T15:38:19;21.20;1.00
10566;DHT22;5331;48.148;16.326;2022-07-26T15:40:48;21.20;1.00
10566;DHT22;5331;48.148;16.326;2022-07-26T15:43:19;21.20;1.00
10566;DHT22;5331;48.148;16.326;2022-07-26T15:45:47;21.30;1.00
10566;DHT22;5331;48.148;16.326;2022-07-26T15:48:14;21.20;1.00
10566;DHT22;5331;48.148;16.326;2022-07-26T15:50:42;21.20;1.00
10566;DHT22;5331;48.148;16.326;2022-07-26T15:53:10;21.20;1.00
10566;DHT22;5331;48.148;16.326;2022-07-26T15:55:37;21.20;1.00
10566;DHT22;5331;48.148;16.326;2022-07-26T15:58:06;21.20;1.00
10566;DHT22;5331;48.148;16.326;2022-07-26T16:00:33;21.30;1.00
10566;DHT22;5331;48.148;16.326;2022-07-26T16:03:00;21.30;1.00